createdAt,value
2023-05-15T00:01:59.537Z,5.05
2023-05-15T00:04:32.092Z,5.10
2023-05-15T00:07:04.041Z,4.55
2023-05-15T00:09:35.987Z,4.10
2023-05-15T00:12:08.184Z,3.70
2023-05-15T00:14:40.055Z,4.10
2023-05-15T00:17:12.587Z,3.60
2023-05-15T00:19:44.445Z,3.75
2023-05-15T00:22:16.355Z,3.40
2023-05-15T00:24:48.408Z,3.30
2023-05-15T00:27:20.510Z,3.20
2023-05-15T00:29:52.536Z,2.65
2023-05-15T00:32:24.447Z,2.10
2023-05-15T00:34:57.090Z,2.20
2023-05-15T00:37:28.976Z,2.10
2023-05-15T00:40:00.955Z,1.70
2023-05-15T00:42:33.382Z,1.98
2023-05-15T00:45:07.993Z,1.90
2023-05-15T00:47:42.265Z,2.22
2023-05-15T00:50:14.819Z,1.98
2023-05-15T00:52:47.533Z,2.20
2023-05-15T00:55:23.209Z,2.25
2023-05-15T00:57:57.659Z,2.25
2023-05-15T01:00:32.864Z,2.08
2023-05-15T01:03:06.373Z,2.00
2023-05-15T01:05:38.819Z,2.92
2023-05-15T01:08:26.888Z,1.70
2023-05-15T01:10:59.269Z,1.70
2023-05-15T01:13:31.171Z,1.60
2023-05-15T01:16:03.227Z,1.52
2023-05-15T01:18:36.245Z,1.77
2023-05-15T01:21:08.290Z,1.50
2023-05-15T01:24:08.013Z,1.63
2023-05-15T01:27:20.469Z,1.80
2023-05-15T01:30:15.671Z,1.60
2023-05-15T01:32:55.694Z,1.83
2023-05-15T01:35:31.576Z,1.83
2023-05-15T01:38:29.958Z,2.10
2023-05-15T01:41:28.564Z,1.75
2023-05-15T01:44:10.189Z,2.00
2023-05-15T01:46:49.554Z,1.80
2023-05-15T01:49:26.252Z,1.65
2023-05-15T01:52:27.895Z,1.70
2023-05-15T01:55:01.724Z,1.55
2023-05-15T01:57:35.092Z,2.10
2023-05-15T02:00:08.260Z,2.22
2023-05-15T02:02:46.792Z,2.38
2023-05-15T02:05:19.248Z,2.20
2023-05-15T02:07:52.789Z,2.20
2023-05-15T02:10:26.259Z,2.20
2023-05-15T02:12:59.857Z,1.70
2023-05-15T02:15:31.958Z,1.40
2023-05-15T02:18:04.152Z,1.40
2023-05-15T02:20:36.094Z,1.58
2023-05-15T02:23:07.973Z,1.30
2023-05-15T02:26:21.494Z,1.27
2023-05-15T02:28:59.763Z,1.50
2023-05-15T02:31:50.013Z,1.40
2023-05-15T02:34:37.359Z,1.30
2023-05-15T02:37:14.167Z,1.38
2023-05-15T02:39:49.769Z,1.20
2023-05-15T02:42:22.773Z,1.30
2023-05-15T02:44:56.821Z,1.52
2023-05-15T02:47:29.733Z,1.30
2023-05-15T02:50:02.640Z,1.38
2023-05-15T02:52:37.707Z,1.15
2023-05-15T02:55:10.111Z,1.50
2023-05-15T02:57:42.430Z,1.33
2023-05-15T03:00:16.149Z,1.48
2023-05-15T03:02:48.067Z,1.50
2023-05-15T03:05:20.089Z,1.80
2023-05-15T03:07:52.086Z,1.50
2023-05-15T03:10:24.301Z,1.52
2023-05-15T03:12:58.487Z,1.50
2023-05-15T03:15:30.467Z,1.33
2023-05-15T03:18:02.744Z,1.17
2023-05-15T03:20:34.672Z,1.10
2023-05-15T03:23:06.497Z,1.20
2023-05-15T03:25:38.431Z,1.20
2023-05-15T03:28:10.645Z,1.50
2023-05-15T03:30:45.670Z,1.40
2023-05-15T03:33:17.458Z,1.60
2023-05-15T03:35:51.193Z,1.40
2023-05-15T03:38:23.513Z,1.35
2023-05-15T03:40:55.461Z,1.33
2023-05-15T03:43:28.525Z,1.10
2023-05-15T03:46:00.352Z,1.15
2023-05-15T03:48:32.227Z,1.42
2023-05-15T03:51:04.273Z,1.65
2023-05-15T03:53:36.233Z,1.30
2023-05-15T03:56:08.067Z,1.77
2023-05-15T03:58:40.857Z,1.52
2023-05-15T04:01:12.767Z,1.60
2023-05-15T04:03:44.652Z,1.65
2023-05-15T04:06:16.576Z,1.40
2023-05-15T04:08:49.113Z,1.48
2023-05-15T04:11:22.990Z,1.25
2023-05-15T04:13:54.831Z,1.45
2023-05-15T04:16:26.796Z,1.33
2023-05-15T04:18:58.784Z,1.58
2023-05-15T04:21:30.671Z,1.50
2023-05-15T04:24:02.584Z,1.67
2023-05-15T04:26:34.477Z,1.52
2023-05-15T04:29:06.669Z,1.40
2023-05-15T04:31:38.677Z,1.60
2023-05-15T04:34:10.719Z,1.60
2023-05-15T04:36:43.179Z,1.55
2023-05-15T04:39:15.075Z,1.63
2023-05-15T04:41:46.924Z,1.60
2023-05-15T04:44:18.726Z,1.42
2023-05-15T04:46:50.824Z,1.67
2023-05-15T04:49:22.623Z,1.60
2023-05-15T04:51:54.560Z,1.40
2023-05-15T04:54:26.483Z,1.30
2023-05-15T04:56:58.325Z,1.65
2023-05-15T04:59:30.835Z,1.23
2023-05-15T05:02:03.257Z,1.42
2023-05-15T05:04:35.367Z,1.50
2023-05-15T05:07:08.125Z,1.50
2023-05-15T05:09:40.605Z,1.40
2023-05-15T05:12:12.611Z,1.30
2023-05-15T05:14:44.939Z,1.38
2023-05-15T05:17:17.056Z,1.75
2023-05-15T05:19:48.905Z,1.20
2023-05-15T05:22:20.721Z,1.10
2023-05-15T05:24:52.668Z,1.20
2023-05-15T05:27:24.550Z,1.20
2023-05-15T05:29:56.472Z,1.30
2023-05-15T05:32:28.389Z,1.20
2023-05-15T05:35:00.259Z,1.35
2023-05-15T05:37:57.677Z,1.30
2023-05-15T05:40:29.554Z,1.60
2023-05-15T05:43:02.241Z,1.67
2023-05-15T05:45:34.165Z,1.60
2023-05-15T05:48:06.225Z,1.60
2023-05-15T05:50:38.185Z,1.20
2023-05-15T05:53:10.266Z,1.00
2023-05-15T05:55:42.674Z,1.10
2023-05-15T05:58:24.848Z,1.00
2023-05-15T06:00:58.279Z,0.90
2023-05-15T06:03:30.329Z,1.00
2023-05-15T06:06:02.175Z,1.52
2023-05-15T06:08:33.970Z,0.90
2023-05-15T06:11:06.364Z,1.40
2023-05-15T06:13:38.268Z,1.00
2023-05-15T06:16:10.124Z,0.90
2023-05-15T06:18:42.096Z,1.08
2023-05-15T06:21:14.131Z,1.02
2023-05-15T06:23:45.965Z,1.10
2023-05-15T06:26:17.962Z,1.20
2023-05-15T06:28:49.821Z,2.70
2023-05-15T06:31:21.736Z,1.55
2023-05-15T06:33:53.666Z,0.90
2023-05-15T06:36:25.593Z,1.15
2023-05-15T06:38:57.623Z,1.40
2023-05-15T06:41:29.595Z,1.70
2023-05-15T06:44:01.469Z,1.50
2023-05-15T06:46:33.387Z,1.92
2023-05-15T06:49:05.327Z,2.40
2023-05-15T06:51:37.221Z,2.35
2023-05-15T06:54:09.063Z,2.20
2023-05-15T06:56:40.997Z,1.88
2023-05-15T06:59:13.173Z,1.80
2023-05-15T07:01:45.432Z,1.50
2023-05-15T07:04:18.507Z,1.63
2023-05-15T07:06:50.460Z,1.40
2023-05-15T07:09:22.345Z,1.52
2023-05-15T07:11:54.234Z,1.80
2023-05-15T07:14:26.148Z,1.60
2023-05-15T07:16:58.012Z,1.60
2023-05-15T07:19:29.975Z,1.92
2023-05-15T07:22:03.319Z,2.25
2023-05-15T07:24:35.948Z,1.88
2023-05-15T07:27:08.483Z,2.00
2023-05-15T07:29:40.284Z,1.90
2023-05-15T07:32:12.200Z,1.60
2023-05-15T07:34:44.229Z,5.28
2023-05-15T07:37:17.021Z,4.22
2023-05-15T07:39:49.406Z,1.60
2023-05-15T07:42:21.334Z,1.95
2023-05-15T07:44:53.208Z,2.00
2023-05-15T07:47:25.568Z,2.10
2023-05-15T07:49:57.449Z,2.05
2023-05-15T07:52:29.248Z,2.03
2023-05-15T07:55:01.373Z,2.35
2023-05-15T07:57:33.194Z,2.53
2023-05-15T08:00:10.329Z,2.35
2023-05-15T08:02:46.429Z,2.10
2023-05-15T08:05:18.614Z,3.35
2023-05-15T08:07:50.779Z,3.40
2023-05-15T08:10:23.272Z,3.40
2023-05-15T08:12:55.191Z,2.88
2023-05-15T08:15:27.181Z,2.50
2023-05-15T08:17:59.187Z,2.40
2023-05-15T08:20:31.501Z,2.97
2023-05-15T08:23:03.365Z,3.75
2023-05-15T08:25:35.279Z,3.35
2023-05-15T08:28:07.332Z,3.30
2023-05-15T08:30:39.168Z,2.58
2023-05-15T08:33:11.079Z,2.85
2023-05-15T08:35:43.191Z,3.10
2023-05-15T08:38:15.111Z,3.20
2023-05-15T08:40:50.288Z,3.35
2023-05-15T08:43:23.631Z,3.20
2023-05-15T08:45:56.339Z,3.10
2023-05-15T08:48:30.073Z,3.58
2023-05-15T08:51:03.194Z,3.42
2023-05-15T08:53:35.410Z,3.22
2023-05-15T08:56:07.404Z,3.22
2023-05-15T08:58:39.582Z,3.80
2023-05-15T09:01:13.215Z,4.40
2023-05-15T09:03:45.304Z,4.07
2023-05-15T09:06:19.101Z,4.60
2023-05-15T09:08:53.009Z,4.28
2023-05-15T09:11:26.933Z,3.53
2023-05-15T09:13:59.903Z,4.78
2023-05-15T09:16:31.834Z,4.25
2023-05-15T09:19:04.962Z,4.32
2023-05-15T09:21:36.900Z,3.17
2023-05-15T09:24:18.010Z,4.55
2023-05-15T09:27:07.215Z,4.53
2023-05-15T09:29:39.953Z,4.32
2023-05-15T09:32:14.077Z,4.07
2023-05-15T09:34:46.289Z,4.30
2023-05-15T09:37:35.425Z,3.80
2023-05-15T09:40:12.025Z,2.65
2023-05-15T09:42:51.974Z,3.63
2023-05-15T09:45:29.954Z,3.17
2023-05-15T09:48:06.065Z,3.00
2023-05-15T09:50:39.616Z,3.20
2023-05-15T09:53:13.275Z,3.67
2023-05-15T09:55:45.178Z,3.67
2023-05-15T09:58:18.640Z,3.20
2023-05-15T10:00:50.557Z,3.42
2023-05-15T10:03:23.533Z,3.50
2023-05-15T10:06:03.511Z,3.30
2023-05-15T10:08:37.127Z,3.73
2023-05-15T10:11:09.088Z,4.32
2023-05-15T10:13:41.024Z,4.15
2023-05-15T10:16:14.432Z,3.60
2023-05-15T10:18:47.423Z,3.63
2023-05-15T10:21:21.674Z,3.30
2023-05-15T10:23:56.749Z,3.13
2023-05-15T10:26:42.667Z,3.17
2023-05-15T10:29:17.354Z,3.28
2023-05-15T10:31:50.209Z,3.95
2023-05-15T10:34:23.024Z,4.35
2023-05-15T10:36:55.633Z,3.10
2023-05-15T10:39:28.960Z,2.65
2023-05-15T10:42:01.675Z,2.42
2023-05-15T10:44:33.649Z,2.90
2023-05-15T10:47:06.383Z,3.42
2023-05-15T10:49:38.697Z,3.30
2023-05-15T10:52:10.691Z,2.67
2023-05-15T10:54:42.725Z,2.97
2023-05-15T10:57:15.319Z,3.28
2023-05-15T10:59:47.175Z,3.10
2023-05-15T11:02:21.517Z,2.80
2023-05-15T11:05:00.271Z,3.13
2023-05-15T11:07:32.117Z,2.75
2023-05-15T11:10:29.813Z,2.78
2023-05-15T11:13:02.429Z,3.10
2023-05-15T11:15:45.570Z,2.97
2023-05-15T11:18:17.971Z,3.20
2023-05-15T11:20:49.873Z,3.10
2023-05-15T11:23:22.752Z,2.75
2023-05-15T11:25:57.134Z,2.47
2023-05-15T11:28:30.813Z,2.40
2023-05-15T11:31:07.129Z,2.30
2023-05-15T11:33:40.795Z,2.42
2023-05-15T11:36:15.904Z,2.80
2023-05-15T11:38:50.968Z,2.28
2023-05-15T11:41:27.627Z,2.30
2023-05-15T11:43:59.643Z,2.30
2023-05-15T11:46:33.206Z,2.70
2023-05-15T11:49:05.165Z,2.65
2023-05-15T11:51:43.070Z,2.33
2023-05-15T11:54:15.160Z,3.17
2023-05-15T11:56:47.000Z,2.58
2023-05-15T11:59:21.572Z,2.30
2023-05-15T12:01:53.370Z,2.47
2023-05-15T12:04:25.466Z,2.30
2023-05-15T12:06:57.388Z,2.50
2023-05-15T12:09:29.431Z,2.88
2023-05-15T12:12:02.609Z,2.50
2023-05-15T12:14:34.487Z,2.30
2023-05-15T12:17:06.493Z,2.83
2023-05-15T12:19:38.737Z,2.30
2023-05-15T12:22:11.496Z,2.80
2023-05-15T12:24:43.371Z,3.03
2023-05-15T12:27:16.256Z,2.97
2023-05-15T12:29:48.145Z,2.63
2023-05-15T12:32:20.966Z,3.35
2023-05-15T12:34:53.268Z,3.00
2023-05-15T12:37:25.285Z,2.30
2023-05-15T12:40:01.341Z,3.05
2023-05-15T12:42:41.762Z,2.88
2023-05-15T12:45:18.688Z,2.30
2023-05-15T12:47:51.295Z,2.45
2023-05-15T12:50:23.633Z,2.30
2023-05-15T12:52:58.130Z,2.20
2023-05-15T12:55:34.786Z,2.95
2023-05-15T12:58:09.713Z,2.80
2023-05-15T13:00:43.461Z,1.95
2023-05-15T13:03:15.470Z,2.67
2023-05-15T13:05:47.575Z,2.17
2023-05-15T13:08:19.707Z,2.10
2023-05-15T13:10:59.608Z,1.98
2023-05-15T13:13:45.883Z,2.20
2023-05-15T13:16:20.441Z,2.08
2023-05-15T13:18:53.213Z,2.10
2023-05-15T13:21:25.252Z,2.58
2023-05-15T13:23:57.545Z,1.85
2023-05-15T13:26:29.479Z,1.80
2023-05-15T13:29:01.727Z,1.70
2023-05-15T13:31:33.554Z,2.55
2023-05-15T13:34:05.474Z,2.08
2023-05-15T13:36:37.914Z,1.70
2023-05-15T13:39:09.812Z,2.80
2023-05-15T13:41:41.670Z,2.05
2023-05-15T13:44:15.080Z,1.92
2023-05-15T13:46:47.010Z,2.20
2023-05-15T13:49:18.967Z,1.98
2023-05-15T13:51:50.809Z,1.83
2023-05-15T13:54:22.661Z,1.50
2023-05-15T13:56:54.559Z,1.90
2023-05-15T13:59:26.645Z,1.95
2023-05-15T14:01:58.520Z,1.80
2023-05-15T14:04:30.422Z,1.60
2023-05-15T14:07:02.337Z,1.83
2023-05-15T14:09:34.219Z,1.70
2023-05-15T14:12:06.126Z,2.10
2023-05-15T14:14:37.987Z,1.95
2023-05-15T14:17:09.851Z,1.90
2023-05-15T14:19:41.897Z,1.23
2023-05-15T14:22:13.765Z,1.40
2023-05-15T14:24:45.805Z,1.00
2023-05-15T14:27:17.647Z,1.30
2023-05-15T14:29:49.793Z,1.20
2023-05-15T14:32:21.809Z,1.08
2023-05-15T14:34:53.848Z,1.00
2023-05-15T14:37:27.401Z,1.55
2023-05-15T14:39:59.294Z,1.30
2023-05-15T14:42:31.205Z,1.40
2023-05-15T14:45:03.313Z,1.27
2023-05-15T14:47:35.413Z,1.70
2023-05-15T14:50:07.723Z,1.50
2023-05-15T14:52:39.562Z,1.15
2023-05-15T14:55:11.834Z,1.42
2023-05-15T14:57:49.117Z,1.80
2023-05-15T15:00:21.100Z,1.23
2023-05-15T15:02:53.366Z,1.20
2023-05-15T15:05:25.404Z,1.02
2023-05-15T15:08:10.965Z,1.67
2023-05-15T15:10:43.773Z,2.15
2023-05-15T15:13:16.595Z,2.13
2023-05-15T15:15:48.983Z,1.58
2023-05-15T15:18:21.530Z,1.60
2023-05-15T15:20:53.480Z,2.03
2023-05-15T15:23:25.430Z,2.47
2023-05-15T15:25:57.347Z,3.20
2023-05-15T15:28:33.570Z,3.80
2023-05-15T15:31:05.669Z,3.30
2023-05-15T15:33:37.550Z,3.22
2023-05-15T15:36:09.465Z,3.28
2023-05-15T15:38:43.740Z,3.70
2023-05-15T15:41:15.754Z,3.55
2023-05-15T15:43:47.909Z,3.40
2023-05-15T15:46:19.854Z,2.65
2023-05-15T15:48:51.827Z,2.70
2023-05-15T15:51:23.687Z,2.50
2023-05-15T15:53:55.533Z,2.80
2023-05-15T15:56:27.389Z,2.10
2023-05-15T15:58:59.330Z,2.15
2023-05-15T16:01:31.277Z,2.05
2023-05-15T16:04:03.205Z,1.80
2023-05-15T16:06:35.412Z,1.70
2023-05-15T16:09:07.336Z,2.13
2023-05-15T16:11:39.165Z,1.80
2023-05-15T16:14:11.060Z,2.60
2023-05-15T16:16:42.926Z,1.70
2023-05-15T16:19:15.198Z,1.63
2023-05-15T16:21:48.459Z,1.70
2023-05-15T16:24:20.916Z,2.10
2023-05-15T16:26:53.021Z,2.38
2023-05-15T16:29:26.127Z,2.10
2023-05-15T16:31:58.428Z,2.10
2023-05-15T16:34:30.437Z,1.70
2023-05-15T16:37:02.533Z,1.80
2023-05-15T16:39:40.234Z,1.67
2023-05-15T16:42:12.047Z,1.55
2023-05-15T16:44:43.906Z,2.10
2023-05-15T16:47:16.414Z,2.45
2023-05-15T16:49:50.184Z,2.05
2023-05-15T16:52:22.647Z,2.50
2023-05-15T16:54:54.628Z,2.20
2023-05-15T16:57:26.951Z,2.20
2023-05-15T16:59:58.812Z,2.05
2023-05-15T17:02:30.801Z,2.38
2023-05-15T17:05:03.727Z,2.38
2023-05-15T17:07:36.738Z,2.20
2023-05-15T17:10:10.000Z,2.25
2023-05-15T17:12:42.466Z,2.70
2023-05-15T17:15:14.373Z,2.70
2023-05-15T17:17:46.219Z,2.45
2023-05-15T17:20:18.185Z,2.60
2023-05-15T17:22:50.150Z,3.03
2023-05-15T17:25:22.020Z,3.25
2023-05-15T17:27:53.921Z,2.78
2023-05-15T17:30:25.938Z,2.90
2023-05-15T17:32:59.664Z,3.15
2023-05-15T17:35:33.002Z,3.28
2023-05-15T17:38:05.688Z,3.22
2023-05-15T17:40:40.728Z,3.78
2023-05-15T17:43:12.661Z,3.45
2023-05-15T17:45:47.301Z,12.27
2023-05-15T17:48:19.227Z,4.55
2023-05-15T17:50:51.824Z,4.63
2023-05-15T17:53:24.449Z,9.55
2023-05-15T17:55:56.501Z,7.15
2023-05-15T17:58:28.299Z,5.82
2023-05-15T18:01:01.935Z,3.35
2023-05-15T18:03:34.293Z,3.40
2023-05-15T18:06:06.489Z,3.03
2023-05-15T18:08:38.931Z,3.88
2023-05-15T18:11:21.412Z,3.25
2023-05-15T18:13:54.561Z,2.90
2023-05-15T18:16:26.779Z,2.90
2023-05-15T18:18:59.322Z,2.97
2023-05-15T18:21:32.336Z,3.10
2023-05-15T18:24:04.673Z,3.00
2023-05-15T18:26:36.685Z,3.10
2023-05-15T18:29:08.951Z,3.67
2023-05-15T18:31:40.937Z,4.22
2023-05-15T18:34:12.817Z,4.88
2023-05-15T18:36:44.662Z,4.40
2023-05-15T18:39:16.668Z,4.45
2023-05-15T18:41:48.772Z,4.50
2023-05-15T18:44:20.631Z,4.57
2023-05-15T18:46:52.791Z,3.88
2023-05-15T18:49:24.643Z,3.85
2023-05-15T18:51:56.676Z,4.20
2023-05-15T18:54:28.576Z,3.72
2023-05-15T18:57:00.444Z,3.88
2023-05-15T18:59:32.755Z,3.72
2023-05-15T19:02:04.858Z,2.50
2023-05-15T19:04:38.183Z,2.70
2023-05-15T19:07:10.651Z,2.70
2023-05-15T19:09:42.759Z,2.58
2023-05-15T19:12:14.682Z,2.20
2023-05-15T19:14:46.630Z,2.30
2023-05-15T19:17:20.191Z,2.10
2023-05-15T19:19:53.261Z,2.30
2023-05-15T19:22:25.187Z,2.63
2023-05-15T19:24:57.347Z,2.00
2023-05-15T19:27:29.256Z,2.30
2023-05-15T19:30:01.226Z,1.60
2023-05-15T19:32:33.632Z,1.67
2023-05-15T19:35:06.063Z,1.77
2023-05-15T19:37:37.998Z,1.60
2023-05-15T19:40:10.202Z,1.45
2023-05-15T19:42:42.155Z,1.70
2023-05-15T19:45:14.125Z,1.60
2023-05-15T19:47:46.158Z,1.58
2023-05-15T19:50:18.391Z,1.20
2023-05-15T19:52:50.749Z,1.50
2023-05-15T19:55:22.728Z,1.17
2023-05-15T19:57:56.435Z,1.10
2023-05-15T20:00:28.596Z,1.40
2023-05-15T20:03:01.003Z,1.20
2023-05-15T20:05:33.141Z,1.63
2023-05-15T20:08:05.160Z,1.23
2023-05-15T20:10:37.165Z,1.20
2023-05-15T20:13:09.372Z,1.05
2023-05-15T20:15:42.420Z,1.10
2023-05-15T20:18:17.414Z,1.20
2023-05-15T20:20:49.802Z,1.13
2023-05-15T20:23:22.171Z,1.10
2023-05-15T20:25:54.084Z,0.95
2023-05-15T20:28:27.262Z,1.10
2023-05-15T20:31:01.661Z,1.10
2023-05-15T20:33:33.548Z,1.00
2023-05-15T20:36:05.605Z,0.90
2023-05-15T20:38:38.611Z,0.90
2023-05-15T20:41:10.914Z,1.00
2023-05-15T20:43:42.782Z,0.90
2023-05-15T20:46:14.779Z,1.00
2023-05-15T20:48:46.807Z,0.90
2023-05-15T20:51:18.787Z,1.10
2023-05-15T20:53:51.020Z,1.02
2023-05-15T20:56:23.029Z,1.17
2023-05-15T20:58:55.609Z,0.70
2023-05-15T21:01:28.423Z,1.98
2023-05-15T21:04:00.485Z,0.90
2023-05-15T21:06:32.436Z,0.90
2023-05-15T21:09:04.407Z,0.95
2023-05-15T21:11:36.203Z,0.95
2023-05-15T21:14:08.214Z,0.98
2023-05-15T21:16:40.114Z,1.20
2023-05-15T21:19:12.261Z,0.90
2023-05-15T21:21:44.139Z,0.90
2023-05-15T21:24:16.779Z,0.90
2023-05-15T21:26:48.901Z,0.90
2023-05-15T21:29:20.892Z,0.80
2023-05-15T21:31:52.749Z,0.80
2023-05-15T21:34:24.812Z,0.80
2023-05-15T21:36:56.674Z,0.88
2023-05-15T21:39:28.473Z,0.70
2023-05-15T21:42:00.283Z,0.60
2023-05-15T21:44:32.132Z,0.60
2023-05-15T21:47:04.268Z,0.73
2023-05-15T21:49:36.292Z,0.80
2023-05-15T21:52:08.189Z,0.80
2023-05-15T21:54:40.111Z,0.73
2023-05-15T21:57:12.050Z,0.73
2023-05-15T21:59:43.909Z,0.50
2023-05-15T22:02:16.004Z,0.70
2023-05-15T22:04:48.000Z,0.95
2023-05-15T22:07:20.696Z,0.70
2023-05-15T22:09:53.246Z,0.63
2023-05-15T22:12:25.393Z,0.70
2023-05-15T22:14:59.505Z,0.50
2023-05-15T22:17:32.131Z,0.70
2023-05-15T22:20:08.155Z,0.80
2023-05-15T22:22:42.249Z,0.70
2023-05-15T22:25:14.246Z,0.80
2023-05-15T22:27:46.253Z,0.60
2023-05-15T22:30:18.315Z,0.77
2023-05-15T22:32:50.330Z,0.95
2023-05-15T22:35:22.379Z,0.90
2023-05-15T22:37:54.364Z,0.70
2023-05-15T22:40:26.536Z,0.70
2023-05-15T22:42:58.739Z,0.50
2023-05-15T22:45:30.679Z,0.70
2023-05-15T22:48:02.722Z,0.80
2023-05-15T22:50:35.006Z,0.93
2023-05-15T22:53:06.846Z,0.77
2023-05-15T22:55:38.862Z,0.80
2023-05-15T22:58:11.099Z,0.80
2023-05-15T23:00:43.042Z,0.68
2023-05-15T23:03:15.116Z,0.60
2023-05-15T23:05:47.186Z,0.77
2023-05-15T23:08:19.246Z,0.80
2023-05-15T23:10:53.272Z,0.70
2023-05-15T23:13:26.765Z,0.63
2023-05-15T23:15:58.813Z,0.50
2023-05-15T23:18:30.932Z,0.60
2023-05-15T23:21:03.206Z,0.52
2023-05-15T23:23:35.153Z,0.80
2023-05-15T23:26:07.085Z,0.50
2023-05-15T23:28:39.039Z,0.60
2023-05-15T23:31:13.476Z,0.47
2023-05-15T23:33:45.610Z,0.77
2023-05-15T23:36:17.582Z,0.40
2023-05-15T23:38:49.544Z,0.57
2023-05-15T23:41:22.927Z,0.40
2023-05-15T23:43:54.933Z,0.40
2023-05-15T23:46:26.924Z,0.40
2023-05-15T23:48:58.772Z,0.30
2023-05-15T23:51:31.350Z,0.30
2023-05-15T23:54:03.322Z,0.30
2023-05-15T23:56:35.324Z,0.30
2023-05-15T23:59:07.264Z,0.40
